createdAt,value
2018-03-16T00:01:05.084Z,68.20
2018-03-16T00:03:32.911Z,68.90
2018-03-16T00:06:00.788Z,75.97
2018-03-16T00:08:28.514Z,66.30
2018-03-16T00:10:56.201Z,84.13
2018-03-16T00:13:24.019Z,58.43
2018-03-16T00:15:51.596Z,79.33
2018-03-16T00:18:19.232Z,68.17
2018-03-16T00:20:46.821Z,72.50
2018-03-16T00:23:14.506Z,57.47
2018-03-16T00:25:42.463Z,66.90
2018-03-16T00:28:10.141Z,66.90
2018-03-16T00:30:37.955Z,54.33
2018-03-16T00:33:05.628Z,70.23
2018-03-16T00:35:33.406Z,85.07
2018-03-16T00:38:01.058Z,87.53
2018-03-16T00:40:28.863Z,76.50
2018-03-16T00:42:56.642Z,73.50
2018-03-16T00:45:24.297Z,69.77
2018-03-16T00:47:51.941Z,77.73
2018-03-16T00:50:19.716Z,80.60
2018-03-16T00:52:47.337Z,100.43
2018-03-16T00:55:15.014Z,86.33
2018-03-16T00:57:42.792Z,94.50
2018-03-16T01:00:10.568Z,91.17
2018-03-16T01:02:38.239Z,85.87
2018-03-16T01:05:05.961Z,80.93
2018-03-16T01:07:33.652Z,93.10
2018-03-16T01:10:01.263Z,93.03
2018-03-16T01:12:28.945Z,79.13
2018-03-16T01:14:56.609Z,95.03
2018-03-16T01:17:24.402Z,95.33
2018-03-16T01:19:52.182Z,87.63
2018-03-16T01:22:19.840Z,85.00
2018-03-16T01:24:47.485Z,93.10
2018-03-16T01:27:15.072Z,96.30
2018-03-16T01:29:42.767Z,81.77
2018-03-16T01:32:10.411Z,102.80
2018-03-16T01:34:38.141Z,97.47
2018-03-16T01:37:05.908Z,74.90
2018-03-16T01:39:33.742Z,70.83
2018-03-16T01:42:01.566Z,79.43
2018-03-16T01:44:29.229Z,90.83
2018-03-16T01:46:56.873Z,70.57
2018-03-16T01:49:24.483Z,95.13
2018-03-16T01:51:52.154Z,88.30
2018-03-16T01:54:19.768Z,78.73
2018-03-16T01:56:47.519Z,127.43
2018-03-16T01:59:15.179Z,114.40
2018-03-16T02:01:42.968Z,100.33
2018-03-16T02:04:10.753Z,115.13
2018-03-16T02:06:38.513Z,98.67
2018-03-16T02:09:06.204Z,65.80
2018-03-16T02:11:33.865Z,117.60
2018-03-16T02:14:01.559Z,97.57
2018-03-16T02:16:29.149Z,100.37
2018-03-16T02:18:56.903Z,119.17
2018-03-16T02:21:24.686Z,105.67
2018-03-16T02:23:52.283Z,128.63
2018-03-16T02:26:20.136Z,116.47
2018-03-16T02:28:47.814Z,110.93
2018-03-16T02:31:15.399Z,113.23
2018-03-16T02:33:43.026Z,115.83
2018-03-16T02:36:10.720Z,119.90
2018-03-16T02:38:38.496Z,129.70
2018-03-16T02:41:06.155Z,122.67
2018-03-16T02:43:33.856Z,122.57
2018-03-16T02:46:01.614Z,100.30
2018-03-16T02:48:29.318Z,133.47
2018-03-16T02:50:56.989Z,126.20
2018-03-16T02:53:24.978Z,102.13
2018-03-16T02:55:52.571Z,130.03
2018-03-16T02:58:20.217Z,128.63
2018-03-16T03:00:47.900Z,111.70
2018-03-16T03:03:15.528Z,125.53
2018-03-16T03:05:43.344Z,124.97
2018-03-16T03:08:11.127Z,124.17
2018-03-16T03:10:38.913Z,103.40
2018-03-16T03:13:06.583Z,100.07
2018-03-16T03:15:34.307Z,127.17
2018-03-16T03:18:02.000Z,96.30
2018-03-16T03:20:29.608Z,95.77
2018-03-16T03:22:57.389Z,123.57
2018-03-16T03:25:25.153Z,109.77
2018-03-16T03:27:52.786Z,125.00
2018-03-16T03:30:20.379Z,123.37
2018-03-16T03:32:48.194Z,96.33
2018-03-16T03:35:15.878Z,107.60
2018-03-16T03:37:43.541Z,106.63
2018-03-16T03:40:11.215Z,121.57
2018-03-16T03:42:38.840Z,106.37
2018-03-16T03:45:06.573Z,125.27
2018-03-16T03:47:34.323Z,103.83
2018-03-16T03:50:02.023Z,115.97
2018-03-16T03:52:29.686Z,90.40
2018-03-16T03:54:57.373Z,114.53
2018-03-16T03:57:24.998Z,102.97
2018-03-16T03:59:52.609Z,122.10
2018-03-16T04:02:20.206Z,112.73
2018-03-16T04:04:47.870Z,92.93
2018-03-16T04:07:15.481Z,124.13
2018-03-16T04:09:43.201Z,98.50
2018-03-16T04:12:10.966Z,107.80
2018-03-16T04:14:38.878Z,104.37
2018-03-16T04:17:06.657Z,104.27
2018-03-16T04:19:34.296Z,83.93
2018-03-16T04:22:01.996Z,117.80
2018-03-16T04:24:29.588Z,119.50
2018-03-16T04:26:57.250Z,123.50
2018-03-16T04:29:24.839Z,95.23
2018-03-16T04:31:52.613Z,124.93
2018-03-16T04:34:20.386Z,110.73
2018-03-16T04:36:48.055Z,104.70
2018-03-16T04:39:15.830Z,136.47
2018-03-16T04:41:43.515Z,75.30
2018-03-16T04:44:11.271Z,102.10
2018-03-16T04:46:39.040Z,142.63
2018-03-16T04:49:06.631Z,131.80
2018-03-16T04:51:34.208Z,82.83
2018-03-16T04:54:01.893Z,123.03
2018-03-16T04:56:29.669Z,91.77
2018-03-16T04:58:57.261Z,118.60
2018-03-16T05:01:25.018Z,139.57
2018-03-16T05:03:52.756Z,129.50
2018-03-16T05:06:20.474Z,140.23
2018-03-16T05:08:48.353Z,102.97
2018-03-16T05:11:16.582Z,121.23
2018-03-16T05:13:44.228Z,128.50
2018-03-16T05:16:11.876Z,112.07
2018-03-16T05:18:39.560Z,116.27
2018-03-16T05:21:07.156Z,136.90
2018-03-16T05:23:34.859Z,144.40
2018-03-16T05:26:02.517Z,142.07
2018-03-16T05:28:30.270Z,83.13
2018-03-16T05:30:58.052Z,143.27
2018-03-16T05:33:26.101Z,114.07
2018-03-16T05:35:53.913Z,115.00
2018-03-16T05:38:21.694Z,121.93
2018-03-16T05:40:49.452Z,135.33
2018-03-16T05:43:17.059Z,142.77
2018-03-16T05:45:44.816Z,152.57
2018-03-16T05:48:12.549Z,142.80
2018-03-16T05:50:40.367Z,120.10
2018-03-16T05:53:08.355Z,143.07
2018-03-16T05:55:36.041Z,145.13
2018-03-16T05:58:03.803Z,115.80
2018-03-16T06:00:31.440Z,147.67
2018-03-16T06:02:59.164Z,168.70
2018-03-16T06:05:26.839Z,147.97
2018-03-16T06:07:54.499Z,157.67
2018-03-16T06:10:22.296Z,135.10
2018-03-16T06:12:49.906Z,146.13
2018-03-16T06:15:17.628Z,141.47
2018-03-16T06:17:45.243Z,131.10
2018-03-16T06:20:12.839Z,148.73
2018-03-16T06:22:40.630Z,133.53
2018-03-16T06:25:08.235Z,163.83
2018-03-16T06:27:35.918Z,160.97
2018-03-16T06:30:03.800Z,138.07
2018-03-16T06:32:31.380Z,114.37
2018-03-16T06:34:59.153Z,138.40
2018-03-16T06:37:26.928Z,164.77
2018-03-16T06:39:54.599Z,116.20
2018-03-16T06:42:22.383Z,156.20
2018-03-16T06:44:50.259Z,149.27
2018-03-16T06:47:17.935Z,118.80
2018-03-16T06:49:45.686Z,171.87
2018-03-16T06:52:13.347Z,118.43
2018-03-16T06:54:41.054Z,158.67
2018-03-16T06:57:08.636Z,124.77
2018-03-16T06:59:36.377Z,135.30
2018-03-16T07:02:04.089Z,133.97
2018-03-16T07:04:31.977Z,149.27
2018-03-16T07:06:59.564Z,136.87
2018-03-16T07:09:27.155Z,89.23
2018-03-16T07:11:54.806Z,138.13
2018-03-16T07:14:22.399Z,142.67
2018-03-16T07:16:50.115Z,117.17
2018-03-16T07:19:17.822Z,121.50
2018-03-16T07:21:45.600Z,134.07
2018-03-16T07:24:13.377Z,114.33
2018-03-16T07:26:41.264Z,102.07
2018-03-16T07:29:09.035Z,116.10
2018-03-16T07:31:36.629Z,129.10
2018-03-16T07:34:04.376Z,154.07
2018-03-16T07:36:31.979Z,135.53
2018-03-16T07:38:59.648Z,161.30
2018-03-16T07:41:27.523Z,142.53
2018-03-16T07:43:55.115Z,144.20
2018-03-16T07:46:22.873Z,105.37
2018-03-16T07:48:50.602Z,104.40
2018-03-16T07:51:18.204Z,130.77
2018-03-16T07:53:45.958Z,130.67
2018-03-16T07:56:13.658Z,108.40
2018-03-16T07:58:41.393Z,146.23
2018-03-16T08:01:09.229Z,157.23
2018-03-16T08:03:37.007Z,146.17
2018-03-16T08:06:04.626Z,141.47
2018-03-16T08:08:32.446Z,147.50
2018-03-16T08:11:00.242Z,173.23
2018-03-16T08:13:28.015Z,184.43
2018-03-16T08:15:55.657Z,151.70
2018-03-16T08:18:23.366Z,147.33
2018-03-16T08:20:51.090Z,136.17
2018-03-16T08:23:18.926Z,123.73
2018-03-16T08:25:46.524Z,166.67
2018-03-16T08:28:15.227Z,157.60
2018-03-16T08:30:42.957Z,106.93
2018-03-16T08:33:10.640Z,153.97
2018-03-16T08:35:38.252Z,139.93
2018-03-16T08:38:05.999Z,133.20
2018-03-16T08:40:33.657Z,146.77
2018-03-16T08:43:01.415Z,133.73
2018-03-16T08:45:29.235Z,154.50
2018-03-16T08:47:56.887Z,121.23
2018-03-16T08:50:24.687Z,118.43
2018-03-16T08:52:52.271Z,128.23
2018-03-16T08:55:19.890Z,144.00
2018-03-16T08:57:47.707Z,117.07
2018-03-16T09:00:15.490Z,81.70
2018-03-16T09:02:43.152Z,128.50
2018-03-16T09:05:10.737Z,88.10
2018-03-16T09:07:38.349Z,107.63
2018-03-16T09:10:06.085Z,123.43
2018-03-16T09:12:33.795Z,142.33
2018-03-16T09:15:01.438Z,91.77
2018-03-16T09:17:29.111Z,146.97
2018-03-16T09:19:56.710Z,116.53
2018-03-16T09:22:24.359Z,81.77
2018-03-16T09:24:52.027Z,148.37
2018-03-16T09:27:19.701Z,123.07
2018-03-16T09:29:47.504Z,116.00
2018-03-16T09:32:15.373Z,122.27
2018-03-16T09:34:43.147Z,76.97
2018-03-16T09:37:10.927Z,104.50
2018-03-16T09:39:38.603Z,98.67
2018-03-16T09:42:06.213Z,108.73
2018-03-16T09:44:33.944Z,96.53
2018-03-16T09:47:01.622Z,82.70
2018-03-16T09:49:29.410Z,109.63
2018-03-16T09:51:57.188Z,94.90
2018-03-16T09:54:24.836Z,107.77
2018-03-16T09:56:52.642Z,95.63
2018-03-16T09:59:20.315Z,68.13
2018-03-16T10:01:47.979Z,77.73
2018-03-16T10:04:15.767Z,105.53
2018-03-16T10:06:43.389Z,110.30
2018-03-16T10:09:11.219Z,90.43
2018-03-16T10:11:39.001Z,73.23
2018-03-16T10:14:06.643Z,105.20
2018-03-16T10:16:34.454Z,69.50
2018-03-16T10:19:02.041Z,89.23
2018-03-16T10:21:29.806Z,79.70
2018-03-16T10:23:57.481Z,107.37
2018-03-16T10:26:25.258Z,60.63
2018-03-16T10:28:52.832Z,66.00
2018-03-16T10:31:20.472Z,113.63
2018-03-16T10:33:48.285Z,75.10
2018-03-16T10:36:15.861Z,59.60
2018-03-16T10:38:43.527Z,86.03
2018-03-16T10:41:11.414Z,112.10
2018-03-16T10:43:39.092Z,92.40
2018-03-16T10:46:06.832Z,95.03
2018-03-16T10:48:34.464Z,74.67
2018-03-16T10:51:02.161Z,81.30
2018-03-16T10:53:29.755Z,77.50
2018-03-16T10:55:57.466Z,66.87
2018-03-16T10:58:25.251Z,101.10
2018-03-16T11:00:58.563Z,95.47
2018-03-16T11:06:27.700Z,100.10
2018-03-16T11:08:55.362Z,88.77
2018-03-16T11:11:22.955Z,57.30
2018-03-16T11:13:50.590Z,87.37
2018-03-16T11:16:18.400Z,77.57
2018-03-16T11:18:46.072Z,78.50
2018-03-16T11:21:13.911Z,72.20
2018-03-16T11:23:41.707Z,81.70
2018-03-16T11:26:09.294Z,91.27
2018-03-16T11:28:36.968Z,61.83
2018-03-16T11:31:04.549Z,54.20
2018-03-16T11:33:32.152Z,70.00
2018-03-16T11:35:59.861Z,74.93
2018-03-16T11:38:27.566Z,75.23
2018-03-16T11:40:55.357Z,82.07
2018-03-16T11:43:22.975Z,52.30
2018-03-16T11:45:50.814Z,88.90
2018-03-16T11:48:18.540Z,86.07
2018-03-16T11:50:46.259Z,58.87
2018-03-16T11:53:13.885Z,69.97
2018-03-16T11:55:41.524Z,59.80
2018-03-16T11:58:09.114Z,55.67
2018-03-16T12:00:36.696Z,68.30
2018-03-16T12:03:04.431Z,68.30
2018-03-16T12:05:32.326Z,79.73
2018-03-16T12:07:59.981Z,76.40
2018-03-16T12:10:27.575Z,51.23
2018-03-16T12:12:55.217Z,70.33
2018-03-16T12:15:22.972Z,67.20
2018-03-16T12:17:50.639Z,50.03
2018-03-16T12:20:18.365Z,51.60
2018-03-16T12:22:45.980Z,63.33
2018-03-16T12:25:13.661Z,63.40
2018-03-16T12:27:41.260Z,58.07
2018-03-16T12:30:08.971Z,53.07
2018-03-16T12:32:36.649Z,56.90
2018-03-16T12:35:04.528Z,56.77
2018-03-16T12:37:32.305Z,57.90
2018-03-16T12:40:00.074Z,47.67
2018-03-16T12:42:27.699Z,40.57
2018-03-16T12:44:55.287Z,48.03
2018-03-16T12:47:23.111Z,50.90
2018-03-16T12:49:50.782Z,59.10
2018-03-16T12:52:18.664Z,43.97
2018-03-16T12:54:46.253Z,62.03
2018-03-16T12:57:13.974Z,47.23
2018-03-16T12:59:41.769Z,45.80
2018-03-16T13:02:09.374Z,48.50
2018-03-16T13:04:36.958Z,47.47
2018-03-16T13:07:04.591Z,42.20
2018-03-16T13:09:32.392Z,52.17
2018-03-16T13:12:00.070Z,49.40
2018-03-16T13:14:27.728Z,32.67
2018-03-16T13:16:55.404Z,38.53
2018-03-16T13:19:23.019Z,46.33
2018-03-16T13:21:50.600Z,44.53
2018-03-16T13:24:18.206Z,54.83
2018-03-16T13:26:46.002Z,42.50
2018-03-16T13:29:13.680Z,41.83
2018-03-16T13:31:41.527Z,46.60
2018-03-16T13:34:09.351Z,44.67
2018-03-16T13:36:37.088Z,44.17
2018-03-16T13:39:05.008Z,46.60
2018-03-16T13:41:32.992Z,40.27
2018-03-16T13:44:00.645Z,39.70
2018-03-16T13:46:28.336Z,38.93
2018-03-16T13:48:56.026Z,37.63
2018-03-16T13:51:23.689Z,30.53
2018-03-16T13:53:51.436Z,46.00
2018-03-16T13:56:19.247Z,40.03
2018-03-16T13:58:47.025Z,42.03
2018-03-16T14:01:14.680Z,28.33
2018-03-16T14:03:42.376Z,47.67
2018-03-16T14:06:10.040Z,41.57
2018-03-16T14:08:37.828Z,32.83
2018-03-16T14:11:05.413Z,36.20
2018-03-16T14:13:33.173Z,32.50
2018-03-16T14:16:00.834Z,45.20
2018-03-16T14:18:28.634Z,33.57
2018-03-16T14:20:56.612Z,38.47
2018-03-16T14:23:24.372Z,29.17
2018-03-16T14:25:52.009Z,30.60
2018-03-16T14:28:19.639Z,40.30
2018-03-16T14:30:47.325Z,29.03
2018-03-16T14:33:14.993Z,33.80
2018-03-16T14:35:42.768Z,42.50
2018-03-16T14:38:10.492Z,27.43
2018-03-16T14:40:38.190Z,38.33
2018-03-16T14:43:06.004Z,33.07
2018-03-16T14:45:33.772Z,30.30
2018-03-16T14:48:01.370Z,41.70
2018-03-16T14:50:28.959Z,35.20
2018-03-16T14:52:56.807Z,30.43
2018-03-16T14:55:24.466Z,32.67
2018-03-16T14:57:52.159Z,39.53
2018-03-16T15:00:19.895Z,41.20
2018-03-16T15:02:47.712Z,22.23
2018-03-16T15:05:15.289Z,35.60
2018-03-16T15:07:42.940Z,32.90
2018-03-16T15:10:11.046Z,30.40
2018-03-16T15:12:38.615Z,27.43
2018-03-16T15:15:06.396Z,34.27
2018-03-16T15:17:34.021Z,27.20
2018-03-16T15:20:01.848Z,35.17
2018-03-16T15:22:29.618Z,27.40
2018-03-16T15:24:57.510Z,29.57
2018-03-16T15:27:25.184Z,26.67
2018-03-16T15:29:53.014Z,34.20
2018-03-16T15:32:20.850Z,33.93
2018-03-16T15:34:48.434Z,20.17
2018-03-16T15:37:16.298Z,24.13
2018-03-16T15:39:43.970Z,25.30
2018-03-16T15:42:11.751Z,24.03
2018-03-16T15:44:40.160Z,26.50
2018-03-16T15:47:07.807Z,27.73
2018-03-16T15:49:35.703Z,23.60
2018-03-16T15:52:03.276Z,29.33
2018-03-16T15:54:30.894Z,29.97
2018-03-16T15:56:58.724Z,18.60
2018-03-16T15:59:26.389Z,19.50
2018-03-16T16:01:53.973Z,21.13
2018-03-16T16:04:21.854Z,22.23
2018-03-16T16:06:49.636Z,26.77
2018-03-16T16:09:17.398Z,26.17
2018-03-16T16:11:45.006Z,27.40
2018-03-16T16:14:12.656Z,20.13
2018-03-16T16:16:40.307Z,17.50
2018-03-16T16:19:08.112Z,25.63
2018-03-16T16:21:35.690Z,14.43
2018-03-16T16:24:03.347Z,25.57
2018-03-16T16:26:31.024Z,28.00
2018-03-16T16:28:58.749Z,34.30
2018-03-16T16:31:26.387Z,24.20
2018-03-16T16:33:54.059Z,21.67
2018-03-16T16:36:21.634Z,24.80
2018-03-16T16:38:49.309Z,21.50
2018-03-16T16:41:17.092Z,21.77
2018-03-16T16:43:44.869Z,23.20
2018-03-16T16:46:12.497Z,19.87
2018-03-16T16:48:40.105Z,18.43
2018-03-16T16:51:07.694Z,22.77
2018-03-16T16:53:35.364Z,19.40
2018-03-16T16:56:03.038Z,21.47
2018-03-16T16:58:30.701Z,25.17
2018-03-16T17:00:58.490Z,27.70
2018-03-16T17:03:26.167Z,16.17
2018-03-16T17:05:53.936Z,23.27
2018-03-16T17:08:21.724Z,22.43
2018-03-16T17:10:49.399Z,19.53
2018-03-16T17:13:16.978Z,23.67
2018-03-16T17:15:44.752Z,22.00
2018-03-16T17:18:12.433Z,30.03
2018-03-16T17:20:40.091Z,26.43
2018-03-16T17:23:07.882Z,30.40
2018-03-16T17:25:35.551Z,38.97
2018-03-16T17:28:03.141Z,23.80
2018-03-16T17:30:30.787Z,20.67
2018-03-16T17:32:58.683Z,21.03
2018-03-16T17:35:26.460Z,20.60
2018-03-16T17:37:54.067Z,27.47
2018-03-16T17:40:21.916Z,24.23
2018-03-16T17:42:49.567Z,15.60
2018-03-16T17:45:17.200Z,29.00
2018-03-16T17:47:44.838Z,26.57
2018-03-16T17:50:12.617Z,22.83
2018-03-16T17:52:40.178Z,17.87
2018-03-16T17:55:07.826Z,27.10
2018-03-16T17:57:35.437Z,23.23
2018-03-16T18:00:03.283Z,18.57
2018-03-16T18:02:31.098Z,21.67
2018-03-16T18:04:58.874Z,15.23
2018-03-16T18:07:26.547Z,18.30
2018-03-16T18:09:55.200Z,17.00
2018-03-16T18:12:22.820Z,19.03
2018-03-16T18:14:50.396Z,19.07
2018-03-16T18:17:18.122Z,23.60
2018-03-16T18:19:45.748Z,30.93
2018-03-16T18:22:13.522Z,16.57
2018-03-16T18:24:41.301Z,20.27
2018-03-16T18:27:08.980Z,16.03
2018-03-16T18:29:36.861Z,19.43
2018-03-16T18:32:04.617Z,18.33
2018-03-16T18:34:32.361Z,20.53
2018-03-16T18:36:59.933Z,16.67
2018-03-16T18:39:31.217Z,12.50
2018-03-16T18:42:03.781Z,15.93
2018-03-16T18:44:36.169Z,22.10
2018-03-16T18:47:08.088Z,16.87
2018-03-16T18:49:40.124Z,17.60
2018-03-16T18:52:11.612Z,17.97
2018-03-16T18:54:44.684Z,16.80
2018-03-16T18:57:12.624Z,10.93
2018-03-16T18:59:40.197Z,22.23
2018-03-16T19:02:07.776Z,13.27
2018-03-16T19:04:40.947Z,12.93
2018-03-16T19:07:13.109Z,13.83
2018-03-16T19:09:42.254Z,13.70
2018-03-16T19:12:12.372Z,13.73
2018-03-16T19:14:42.129Z,11.67
2018-03-16T19:17:10.007Z,15.00
2018-03-16T19:19:37.786Z,14.70
2018-03-16T19:22:05.462Z,11.70
2018-03-16T19:24:33.070Z,10.93
2018-03-16T19:27:00.916Z,11.60
2018-03-16T19:29:28.696Z,15.77
2018-03-16T19:31:56.478Z,15.83
2018-03-16T19:34:24.227Z,15.53
2018-03-16T19:36:52.090Z,15.23
2018-03-16T19:39:19.791Z,16.90
2018-03-16T19:41:47.354Z,19.60
2018-03-16T19:44:15.153Z,10.97
2018-03-16T19:46:42.878Z,7.50
2018-03-16T19:49:10.435Z,17.13
2018-03-16T19:51:38.066Z,14.20
2018-03-16T19:54:05.715Z,12.50
2018-03-16T19:56:33.414Z,13.80
2018-03-16T19:59:01.038Z,17.50
2018-03-16T20:01:28.875Z,10.10
2018-03-16T20:03:56.499Z,13.70
2018-03-16T20:06:24.369Z,12.57
2018-03-16T20:08:52.011Z,7.77
2018-03-16T20:11:19.682Z,8.57
2018-03-16T20:13:47.258Z,8.43
2018-03-16T20:16:14.924Z,9.90
2018-03-16T20:18:42.609Z,7.50
2018-03-16T20:21:10.392Z,8.30
2018-03-16T20:23:38.169Z,11.13
2018-03-16T20:26:05.789Z,15.00
2018-03-16T20:28:33.510Z,9.50
2018-03-16T20:31:01.189Z,11.97
2018-03-16T20:33:28.814Z,16.30
2018-03-16T20:35:56.388Z,16.70
2018-03-16T20:38:23.997Z,15.70
2018-03-16T20:40:51.599Z,24.13
2018-03-16T20:43:19.264Z,17.50
2018-03-16T20:45:46.930Z,8.10
2018-03-16T20:48:14.517Z,8.67
2018-03-16T20:50:42.181Z,24.50
2018-03-16T20:53:09.782Z,12.83
2018-03-16T20:55:38.530Z,15.40
2018-03-16T20:58:06.134Z,9.10
2018-03-16T21:00:33.814Z,9.87
2018-03-16T21:03:01.579Z,10.40
2018-03-16T21:05:29.269Z,10.00
2018-03-16T21:07:56.926Z,9.57
2018-03-16T21:10:24.720Z,10.40
2018-03-16T21:12:52.332Z,12.53
2018-03-16T21:15:19.931Z,10.57
2018-03-16T21:17:47.538Z,14.57
2018-03-16T21:20:19.010Z,11.30
2018-03-16T21:22:46.696Z,10.50
2018-03-16T21:25:14.327Z,9.77
2018-03-16T21:27:42.021Z,12.20
2018-03-16T21:30:11.142Z,6.50
2018-03-16T21:32:38.818Z,13.17
2018-03-16T21:35:06.411Z,8.23
2018-03-16T21:37:34.248Z,7.90
2018-03-16T21:40:01.892Z,9.50
2018-03-16T21:42:30.032Z,10.60
2018-03-16T21:45:02.498Z,13.50
2018-03-16T21:47:30.448Z,8.50
2018-03-16T21:49:58.285Z,12.27
2018-03-16T21:52:25.959Z,9.23
2018-03-16T21:54:53.588Z,11.50
2018-03-16T21:57:21.156Z,10.87
2018-03-16T21:59:48.751Z,13.23
2018-03-16T22:02:16.542Z,9.13
2018-03-16T22:04:44.148Z,11.80
2018-03-16T22:07:11.762Z,11.87
2018-03-16T22:09:39.375Z,6.80
2018-03-16T22:12:07.011Z,7.00
2018-03-16T22:14:34.938Z,8.20
2018-03-16T22:17:02.695Z,8.67
2018-03-16T22:19:30.682Z,9.83
2018-03-16T22:21:58.263Z,8.17
2018-03-16T22:24:26.044Z,9.47
2018-03-16T22:26:53.711Z,5.17
2018-03-16T22:29:21.398Z,8.70
2018-03-16T22:31:48.973Z,8.13
2018-03-16T22:34:16.639Z,12.07
2018-03-16T22:36:44.209Z,8.97
2018-03-16T22:39:11.900Z,7.63
2018-03-16T22:41:39.530Z,13.33
2018-03-16T22:44:07.249Z,8.83
2018-03-16T22:46:34.823Z,6.47
2018-03-16T22:49:03.009Z,10.30
2018-03-16T22:51:30.786Z,10.73
2018-03-16T22:53:58.371Z,10.50
2018-03-16T22:56:26.240Z,8.83
2018-03-16T22:58:53.903Z,8.10
2018-03-16T23:01:21.569Z,7.50
2018-03-16T23:03:49.172Z,8.80
2018-03-16T23:06:16.838Z,10.23
2018-03-16T23:08:44.500Z,8.40
2018-03-16T23:11:12.173Z,7.67
2018-03-16T23:13:39.854Z,8.20
2018-03-16T23:16:07.463Z,7.87
2018-03-16T23:18:35.065Z,8.10
2018-03-16T23:21:02.894Z,7.53
2018-03-16T23:23:30.609Z,10.90
2018-03-16T23:25:58.206Z,7.80
2018-03-16T23:28:25.813Z,8.03
2018-03-16T23:30:53.478Z,10.20
2018-03-16T23:33:21.073Z,10.03
2018-03-16T23:35:48.818Z,6.90
2018-03-16T23:38:16.437Z,6.17
2018-03-16T23:40:44.013Z,9.30
2018-03-16T23:43:11.641Z,9.67
2018-03-16T23:45:39.201Z,9.40
2018-03-16T23:48:06.777Z,12.10
2018-03-16T23:50:34.469Z,6.17
2018-03-16T23:53:02.072Z,11.23
2018-03-16T23:55:29.719Z,9.23
2018-03-16T23:57:57.415Z,11.03
